createdAt,value
2022-12-03T00:04:01.915Z,102367.84
2022-12-03T00:09:07.872Z,102358.41
2022-12-03T00:14:13.092Z,102399.56
2022-12-03T00:19:19.090Z,102414.13
2022-12-03T00:24:24.456Z,102410.66
2022-12-03T00:29:30.625Z,102406.34
2022-12-03T00:34:36.133Z,102444.06
2022-12-03T00:39:42.654Z,102440.63
2022-12-03T00:44:49.401Z,102433.72
2022-12-03T00:49:54.398Z,102473.19
2022-12-03T00:54:59.326Z,102420.78
2022-12-03T01:00:05.421Z,102432.75
2022-12-03T01:05:11.126Z,102456.78
2022-12-03T01:10:17.346Z,102460.19
2022-12-03T01:15:23.635Z,102485.97
2022-12-03T01:20:29.820Z,102505.72
2022-12-03T01:25:34.723Z,102530.59
2022-12-03T01:30:59.430Z,102520.25
2022-12-03T01:36:04.465Z,102527.09
2022-12-03T01:41:11.871Z,102521.91
2022-12-03T01:46:22.301Z,102528.78
2022-12-03T01:51:27.344Z,102563.19
2022-12-03T01:56:32.418Z,102549.44
2022-12-03T02:01:37.446Z,102530.56
2022-12-03T02:06:43.630Z,102535.72
2022-12-03T02:11:53.417Z,102555.44
2022-12-03T02:16:59.308Z,102553.72
2022-12-03T02:22:33.561Z,102557.13
2022-12-03T02:27:38.669Z,102539.09
2022-12-03T02:32:45.388Z,102530.47
2022-12-03T02:38:12.922Z,102546.78
2022-12-03T02:43:20.101Z,102504.56
2022-12-03T02:48:33.654Z,102488.09
2022-12-03T02:53:48.515Z,102489.59
2022-12-03T02:58:59.402Z,102500.53
2022-12-03T03:04:06.831Z,102473.72
2022-12-03T03:09:14.215Z,102468.41
2022-12-03T03:14:22.048Z,102451.03
2022-12-03T03:19:31.273Z,102450.09
2022-12-03T03:24:37.853Z,102413.72
2022-12-03T03:29:43.326Z,102425.63
2022-12-03T03:34:50.526Z,102425.41
2022-12-03T03:39:59.089Z,102417.53
2022-12-03T03:45:05.958Z,102393.19
2022-12-03T03:50:14.015Z,102408.41
2022-12-03T03:55:22.666Z,102391.78
2022-12-03T04:00:28.246Z,102389.75
2022-12-03T04:05:34.940Z,102367.06
2022-12-03T04:10:59.866Z,102360.75
2022-12-03T04:16:05.498Z,102395.13
2022-12-03T04:21:32.072Z,102362.16
2022-12-03T04:26:56.687Z,102343.75
2022-12-03T04:32:20.396Z,102329.84
2022-12-03T04:37:27.612Z,102370.34
2022-12-03T04:42:35.398Z,102345.84
2022-12-03T04:47:41.951Z,102379.44
2022-12-03T04:52:48.461Z,102321.34
2022-12-03T04:57:55.598Z,102315.06
2022-12-03T05:03:01.189Z,102320.09
2022-12-03T05:08:07.204Z,102326.81
2022-12-03T05:13:12.646Z,102280.94
2022-12-03T05:18:19.822Z,102324.00
2022-12-03T05:23:24.979Z,102285.03
2022-12-03T05:28:30.364Z,102304.75
2022-12-03T05:33:40.917Z,102279.72
2022-12-03T05:38:49.294Z,102296.88
2022-12-03T05:43:56.618Z,102303.63
2022-12-03T05:49:03.145Z,102268.97
2022-12-03T05:54:08.587Z,102273.25
2022-12-03T05:59:13.882Z,102276.63
2022-12-03T06:04:20.575Z,102287.91
2022-12-03T06:09:26.046Z,102288.66
2022-12-03T06:14:34.573Z,102274.69
2022-12-03T06:19:39.892Z,102252.13
2022-12-03T06:24:45.461Z,102247.91
2022-12-03T06:29:52.032Z,102244.38
2022-12-03T06:34:57.450Z,102264.44
2022-12-03T06:40:04.117Z,102246.06
2022-12-03T06:45:12.203Z,102236.50
2022-12-03T06:50:19.049Z,102252.91
2022-12-03T06:55:25.595Z,102242.53
2022-12-03T07:00:30.863Z,102259.03
2022-12-03T07:05:41.372Z,102259.19
2022-12-03T07:10:50.798Z,102326.84
2022-12-03T07:15:57.913Z,102266.41
2022-12-03T07:21:04.046Z,102282.94
2022-12-03T07:26:13.050Z,102270.13
2022-12-03T07:31:22.872Z,102280.59
2022-12-03T07:36:29.455Z,102276.28
2022-12-03T07:41:34.828Z,102273.84
2022-12-03T07:46:40.520Z,102278.34
2022-12-03T07:51:54.842Z,102301.78
2022-12-03T07:57:03.936Z,102282.94
2022-12-03T08:02:11.489Z,102305.56
2022-12-03T08:07:18.771Z,102321.16
2022-12-03T08:12:45.069Z,102326.38
2022-12-03T08:18:04.382Z,102333.47
2022-12-03T08:23:26.327Z,102316.41
2022-12-03T08:28:33.351Z,102307.94
2022-12-03T08:33:43.012Z,102322.00
2022-12-03T08:38:53.983Z,102321.25
2022-12-03T08:44:01.841Z,102320.72
2022-12-03T08:49:07.831Z,102348.56
2022-12-03T08:54:22.938Z,102347.78
2022-12-03T08:59:35.498Z,102365.22
2022-12-03T09:04:46.546Z,102373.16
2022-12-03T09:09:52.360Z,102376.81
2022-12-03T09:14:58.387Z,102372.59
2022-12-03T09:20:04.715Z,102391.69
2022-12-03T09:25:12.121Z,102409.09
2022-12-03T09:30:17.662Z,102401.38
2022-12-03T09:35:24.124Z,102411.88
2022-12-03T09:40:31.521Z,102430.81
2022-12-03T09:45:37.653Z,102427.41
2022-12-03T09:50:44.796Z,102432.69
2022-12-03T09:55:52.704Z,102452.50
2022-12-03T10:00:59.530Z,102483.69
2022-12-03T10:06:06.443Z,102482.84
2022-12-03T10:11:13.498Z,102509.47
2022-12-03T10:16:20.398Z,102480.91
2022-12-03T10:21:39.808Z,102489.50
2022-12-03T10:26:48.787Z,102499.88
2022-12-03T10:32:00.232Z,102519.75
2022-12-03T10:37:26.048Z,102526.72
2022-12-03T10:42:38.837Z,102535.44
2022-12-03T10:47:46.446Z,102533.75
2022-12-03T10:52:52.384Z,102539.91
2022-12-03T10:57:59.228Z,102548.53
2022-12-03T11:03:05.715Z,102570.16
2022-12-03T11:08:22.845Z,102597.84
2022-12-03T11:13:41.800Z,102592.75
2022-12-03T11:18:48.651Z,102602.31
2022-12-03T11:23:55.621Z,102600.47
2022-12-03T11:29:02.150Z,102634.09
2022-12-03T11:34:22.999Z,102610.03
2022-12-03T11:39:46.747Z,102616.97
2022-12-03T11:45:13.184Z,102623.09
2022-12-03T11:50:39.626Z,102628.28
2022-12-03T11:56:15.250Z,102629.13
2022-12-03T12:01:39.180Z,102691.22
2022-12-03T12:07:02.694Z,102698.19
2022-12-03T12:12:43.402Z,102645.63
2022-12-03T12:17:52.786Z,102665.41
2022-12-03T12:23:28.696Z,102665.47
2022-12-03T12:28:38.647Z,102722.38
2022-12-03T12:33:45.899Z,102710.50
2022-12-03T12:38:52.587Z,102704.59
2022-12-03T12:44:02.417Z,102718.41
2022-12-03T12:49:15.580Z,102758.94
2022-12-03T12:54:27.522Z,102724.59
2022-12-03T12:59:34.362Z,102733.25
2022-12-03T13:04:41.622Z,102756.47
2022-12-03T13:09:52.661Z,102773.66
2022-12-03T13:15:02.125Z,102801.16
2022-12-03T13:20:22.801Z,102820.06
2022-12-03T13:31:26.063Z,102819.19
2022-12-03T13:36:57.106Z,102821.75
2022-12-03T13:42:45.003Z,102818.28
2022-12-03T13:48:01.971Z,102816.53
2022-12-03T13:53:29.816Z,102817.41
2022-12-03T13:58:35.808Z,102829.44
2022-12-03T14:03:46.356Z,102825.97
2022-12-03T14:08:55.519Z,102835.41
2022-12-03T14:14:02.086Z,102849.09
2022-12-03T14:19:09.639Z,102838.78
2022-12-03T14:24:16.830Z,102840.47
2022-12-03T14:29:24.366Z,102851.59
2022-12-03T14:34:31.466Z,102848.16
2022-12-03T14:39:40.243Z,102843.84
2022-12-03T14:44:50.241Z,102845.59
2022-12-03T14:49:57.635Z,102859.25
2022-12-03T14:55:04.685Z,102866.94
2022-12-03T15:00:12.746Z,102869.47
2022-12-03T15:05:22.205Z,102854.00
2022-12-03T15:10:35.173Z,102857.41
2022-12-03T15:15:46.324Z,102860.81
2022-12-03T15:20:54.053Z,102916.47
2022-12-03T15:26:07.535Z,102890.72
2022-12-03T15:31:18.533Z,102885.53
2022-12-03T15:36:26.133Z,102865.84
2022-12-03T15:41:33.350Z,102876.97
2022-12-03T15:46:47.958Z,102847.88
2022-12-03T15:52:03.280Z,102854.75
2022-12-03T15:57:15.946Z,102873.59
2022-12-03T16:02:26.847Z,102892.44
2022-12-03T16:07:36.991Z,102854.66
2022-12-03T16:12:45.530Z,102871.72
2022-12-03T16:18:03.168Z,102869.94
2022-12-03T16:23:11.733Z,102917.00
2022-12-03T16:28:19.419Z,102899.81
2022-12-03T16:33:33.790Z,102850.97
2022-12-03T16:38:44.048Z,102830.38
2022-12-03T16:43:51.227Z,102830.34
2022-12-03T16:49:01.989Z,102838.13
2022-12-03T16:54:09.862Z,102845.94
2022-12-03T16:59:16.273Z,102830.59
2022-12-03T17:04:23.710Z,102814.41
2022-12-03T17:09:30.406Z,102837.63
2022-12-03T17:14:37.128Z,102824.81
2022-12-03T17:19:42.927Z,102850.50
2022-12-03T17:24:49.743Z,102857.38
2022-12-03T17:29:55.344Z,102869.34
2022-12-03T17:35:01.825Z,102848.78
2022-12-03T17:40:09.132Z,102880.41
2022-12-03T17:45:15.684Z,102882.09
2022-12-03T17:50:20.063Z,102864.91
2022-12-03T17:55:33.832Z,102875.97
2022-12-03T18:00:41.450Z,102867.38
2022-12-03T18:05:46.468Z,102873.38
2022-12-03T18:10:52.760Z,102854.53
2022-12-03T18:15:57.948Z,102900.03
2022-12-03T18:21:05.994Z,102877.75
2022-12-03T18:26:10.991Z,102882.88
2022-12-03T18:31:18.241Z,102887.09
2022-12-03T18:36:28.059Z,102892.19
2022-12-03T18:41:33.623Z,102911.75
2022-12-03T18:46:55.175Z,102925.47
2022-12-03T18:52:01.218Z,102896.22
2022-12-03T18:57:06.251Z,102891.91
2022-12-03T19:02:38.976Z,102897.00
2022-12-03T19:07:46.365Z,102895.22
2022-12-03T19:12:50.753Z,102879.78
2022-12-03T19:17:55.703Z,102876.41
2022-12-03T19:23:00.680Z,102880.66
2022-12-03T19:28:06.751Z,102878.09
2022-12-03T19:33:17.834Z,102856.66
2022-12-03T19:38:25.588Z,102865.28
2022-12-03T19:43:33.859Z,102858.44
2022-12-03T19:48:40.790Z,102902.88
2022-12-03T19:53:47.795Z,102858.38
2022-12-03T19:58:58.418Z,102854.94
2022-12-03T20:04:05.218Z,102843.66
2022-12-03T20:09:19.883Z,102859.84
2022-12-03T20:14:25.007Z,102848.56
2022-12-03T20:19:29.908Z,102850.22
2022-12-03T20:24:36.556Z,102860.50
2022-12-03T20:29:43.008Z,102879.44
2022-12-03T20:34:48.032Z,102862.41
2022-12-03T20:39:54.261Z,102865.78
2022-12-03T20:45:00.172Z,102865.78
2022-12-03T20:50:06.248Z,102856.38
2022-12-03T20:55:13.529Z,102860.59
2022-12-03T21:00:18.875Z,102861.34
2022-12-03T21:05:23.892Z,102884.25
2022-12-03T21:10:37.881Z,102865.28
2022-12-03T21:15:43.426Z,102866.78
2022-12-03T21:20:50.537Z,102867.50
2022-12-03T21:25:57.069Z,102884.50
2022-12-03T21:31:02.528Z,102871.59
2022-12-03T21:36:08.644Z,102869.88
2022-12-03T21:41:15.419Z,102878.50
2022-12-03T21:47:08.283Z,102882.00
2022-12-03T21:51:45.501Z,102891.41
2022-12-03T21:56:50.595Z,102896.56
2022-12-03T22:01:56.581Z,102912.84
2022-12-03T22:07:01.624Z,102933.44
2022-12-03T22:12:06.817Z,102940.25
2022-12-03T22:17:11.762Z,102928.22
2022-12-03T22:22:17.895Z,102953.81
2022-12-03T22:27:22.176Z,102943.47
2022-12-03T22:32:28.309Z,102948.47
2022-12-03T22:37:34.945Z,102951.75
2022-12-03T22:42:39.909Z,102955.91
2022-12-03T22:47:45.613Z,102986.63
2022-12-03T22:52:52.132Z,102966.84
2022-12-03T22:57:58.306Z,102968.59
2022-12-03T23:03:03.965Z,102962.63
2022-12-03T23:08:12.039Z,102966.84
2022-12-03T23:13:18.608Z,102985.63
2022-12-03T23:18:24.654Z,103002.63
2022-12-03T23:23:31.330Z,103009.53
2022-12-03T23:28:39.553Z,102997.41
2022-12-03T23:33:45.170Z,102990.53
2022-12-03T23:38:50.297Z,103014.34
2022-12-03T23:43:56.707Z,103015.19
2022-12-03T23:49:03.112Z,103017.69
2022-12-03T23:54:08.460Z,103023.63
2022-12-03T23:59:14.850Z,103043.41
